Time;durP1;ratioP1;P1;durP2;ratioP2;P2;SDS_P1;SDS_P2;PMS_P1;PMS_P2;Temp;Humidity;BMP_temperature;BMP_pressure;BME280_temperature;BME280_humidity;BME280_pressure;Samples;Min_cycle;Max_cycle;Signal;HPM_P1;HPM_P2
2022/11/10 00:00:10;;;;;;;5.93;4.93;;;;;;;11.38;100.00;100709.00;5062970;28;20212;-76
2022/11/10 00:02:35;;;;;;;7.20;5.13;;;;;;;11.36;100.00;100710.72;5062158;28;20208;-76
2022/11/10 00:05:01;;;;;;;5.90;4.50;;;;;;;11.36;100.00;100711.59;5063011;28;20940;-75
2022/11/10 00:07:27;;;;;;;6.03;5.03;;;;;;;11.36;100.00;100709.00;5070745;28;20277;-74
2022/11/10 00:09:53;;;;;;;4.70;4.30;;;;;;;11.36;100.00;100709.00;5064100;28;20255;-75
2022/11/10 00:12:19;;;;;;;5.87;4.33;;;;;;;11.38;100.00;100709.00;5063362;28;20376;-76
2022/11/10 00:17:29;;;;;;;5.27;4.40;;;;;;;11.37;100.00;100710.72;5065099;28;20184;-73
2022/11/10 00:19:55;;;;;;;4.20;3.80;;;;;;;11.39;100.00;100718.50;5064739;28;20273;-75
2022/11/10 00:22:20;;;;;;;4.03;3.60;;;;;;;11.38;100.00;100714.19;5061141;28;20182;-76
2022/11/10 00:24:46;;;;;;;4.70;4.30;;;;;;;11.38;100.00;100709.84;5063498;28;20202;-75
2022/11/10 00:27:13;;;;;;;4.90;4.20;;;;;;;11.35;100.00;100714.19;5064515;28;20188;-75
2022/11/10 00:29:39;;;;;;;5.07;4.40;;;;;;;11.31;100.00;100721.13;5058682;28;20267;-75
2022/11/10 00:32:04;;;;;;;4.60;4.20;;;;;;;11.25;100.00;100718.56;5062241;28;20217;-74
2022/11/10 00:34:29;;;;;;;5.07;4.23;;;;;;;11.18;100.00;100724.66;5059834;28;20281;-76
2022/11/10 00:36:55;;;;;;;5.70;3.83;;;;;;;11.11;100.00;100729.00;5063710;28;20178;-76
2022/11/10 00:39:20;;;;;;;4.83;4.43;;;;;;;11.07;100.00;100735.91;5063774;28;20229;-73
2022/11/10 00:41:45;;;;;;;5.40;4.90;;;;;;;11.03;100.00;100734.22;5063324;28;20326;-75
2022/11/10 00:44:11;;;;;;;5.70;4.10;;;;;;;11.01;100.00;100735.94;5064023;28;20561;-77
2022/11/10 00:46:36;;;;;;;5.63;4.80;;;;;;;11.02;100.00;100736.78;5056293;28;20704;-76
2022/11/10 00:49:01;;;;;;;6.00;4.87;;;;;;;11.03;100.00;100741.97;5060140;28;20247;-74
2022/11/10 00:51:28;;;;;;;5.37;3.83;;;;;;;11.04;100.00;100750.59;5064706;28;22237;-74
2022/11/10 00:53:54;;;;;;;4.57;4.17;;;;;;;11.04;100.00;100748.00;5057804;28;20185;-76
2022/11/10 00:56:21;;;;;;;5.17;4.67;;;;;;;11.04;100.00;100750.59;5060215;28;20196;-76
2022/11/10 00:58:46;;;;;;;4.87;4.43;;;;;;;11.05;100.00;100760.09;5058287;28;20792;-74
2022/11/10 01:01:13;;;;;;;4.70;4.30;;;;;;;11.05;100.00;100765.28;5063449;28;20204;-74
2022/11/10 01:03:39;;;;;;;5.00;4.60;;;;;;;11.03;100.00;100760.09;5070229;28;20181;-74
2022/11/10 01:06:10;;;;;;;4.93;4.43;;;;;;;11.03;100.00;100767.88;5072957;28;20225;-75
2022/11/10 01:08:39;;;;;;;4.60;3.80;;;;;;;11.00;100.00;100760.13;5062463;28;20190;-75
2022/11/10 01:11:08;;;;;;;4.73;4.33;;;;;;;10.97;100.00;100773.91;5066236;28;20580;-77
2022/11/10 01:13:34;;;;;;;4.67;3.90;;;;;;;10.91;100.00;100784.31;5061448;28;20196;-74
2022/11/10 01:16:05;;;;;;;4.57;4.17;;;;;;;10.84;100.00;100787.75;5055739;28;20189;-75
2022/11/10 01:18:30;;;;;;;4.73;4.13;;;;;;;10.75;100.00;100792.97;5057882;28;20174;-76
2022/11/10 01:20:56;;;;;;;4.60;4.03;;;;;;;10.64;100.00;100788.66;5065323;28;20198;-75
2022/11/10 01:23:21;;;;;;;4.43;4.03;;;;;;;10.56;100.00;100794.72;5065554;28;20206;-75
2022/11/10 01:25:46;;;;;;;5.87;5.07;;;;;;;10.48;100.00;100798.16;5065055;28;20203;-75
2022/11/10 01:28:11;;;;;;;5.40;4.60;;;;;;;10.41;100.00;100796.44;5062833;28;20274;-76
2022/11/10 01:30:37;;;;;;;5.00;4.50;;;;;;;10.35;100.00;100801.56;5057482;28;20216;-73
2022/11/10 01:33:02;;;;;;;5.57;4.40;;;;;;;10.28;100.00;100803.31;5056838;28;20182;-74
2022/11/10 01:35:28;;;;;;;7.47;5.13;;;;;;;10.22;100.00;100811.94;5061230;28;20178;-77
2022/11/10 01:37:53;;;;;;;5.23;4.73;;;;;;;10.17;100.00;100810.19;5065120;28;20191;-76
2022/11/10 01:40:19;;;;;;;5.20;4.70;;;;;;;10.11;100.00;100824.00;5067139;28;20236;-74
2022/11/10 01:42:51;;;;;;;5.83;4.87;;;;;;;10.06;100.00;100831.72;5070818;28;20210;-77
2022/11/10 01:45:22;;;;;;;7.00;5.50;;;;;;;10.01;100.00;100828.28;5062282;28;20787;-76
2022/11/10 01:47:58;;;;;;;5.33;4.60;;;;;;;9.97;100.00;100831.72;5063281;28;20190;-73
2022/11/10 01:50:26;;;;;;;4.90;4.40;;;;;;;9.90;100.00;100830.84;5065988;28;20202;-75
2022/11/10 01:52:54;;;;;;;6.17;4.37;;;;;;;9.84;100.00;100830.81;5062074;28;20199;-73
2022/11/10 01:55:22;;;;;;;6.20;4.73;;;;;;;9.81;100.00;100832.53;5076285;28;20196;-75
2022/11/10 01:57:47;;;;;;;6.37;4.90;;;;;;;9.76;100.00;100841.13;5069786;28;20188;-77
2022/11/10 02:00:13;;;;;;;5.17;4.67;;;;;;;9.71;100.00;100835.09;5067068;28;20201;-76
2022/11/10 02:02:45;;;;;;;6.00;4.43;;;;;;;9.69;100.00;100841.09;5065226;28;20194;-75
2022/11/10 02:05:10;;;;;;;8.03;4.30;;;;;;;9.65;100.00;100844.53;5067446;28;20248;-76
2022/11/10 02:07:36;;;;;;;5.00;4.20;;;;;;;9.58;100.00;100843.66;5056866;28;20255;-74
2022/11/10 02:10:02;;;;;;;4.87;4.10;;;;;;;9.53;100.00;100846.19;5067187;28;20270;-74
2022/11/10 02:12:35;;;;;;;4.43;4.03;;;;;;;9.48;100.00;100849.63;5064616;28;20192;-76
2022/11/10 02:15:06;;;;;;;4.47;4.07;;;;;;;9.42;100.00;100843.59;5063036;28;20207;-75
2022/11/10 02:17:31;;;;;;;5.17;4.00;;;;;;;9.38;100.00;100841.84;5063911;28;20726;-76
2022/11/10 02:19:59;;;;;;;4.50;4.10;;;;;;;9.35;100.00;100848.72;5062680;28;20186;-75
2022/11/10 02:22:24;;;;;;;4.43;4.03;;;;;;;9.31;100.00;100855.56;5063000;28;20243;-77
2022/11/10 02:24:50;;;;;;;4.53;4.00;;;;;;;9.26;100.00;100858.13;5067702;28;20949;-76
2022/11/10 02:27:15;;;;;;;4.07;3.40;;;;;;;9.23;100.00;100867.59;5064801;28;20182;-78
2022/11/10 02:29:40;;;;;;;4.17;3.77;;;;;;;9.19;100.00;100863.25;5066334;28;20188;-75
2022/11/10 02:32:06;;;;;;;4.27;3.87;;;;;;;9.14;100.00;100870.97;5067689;28;20210;-75
2022/11/10 02:34:31;;;;;;;5.20;3.90;;;;;;;9.09;100.00;100867.47;5061067;28;20226;-73
2022/11/10 02:36:57;;;;;;;5.10;4.17;;;;;;;9.07;100.00;100869.22;5060465;28;20272;-78
2022/11/10 02:39:22;;;;;;;4.77;4.20;;;;;;;9.05;100.00;100858.88;5065256;28;20191;-77
2022/11/10 02:41:47;;;;;;;6.37;4.10;;;;;;;9.02;100.00;100873.47;5064396;28;20332;-75
2022/11/10 02:44:13;;;;;;;5.33;4.60;;;;;;;8.98;100.00;100876.03;5058862;28;20181;-78
2022/11/10 02:46:38;;;;;;;3.80;3.40;;;;;;;8.94;100.00;100871.69;5059725;28;20213;-77
2022/11/10 02:49:04;;;;;;;5.60;4.00;;;;;;;8.91;100.00;100874.28;5066572;28;20192;-74
2022/11/10 02:51:29;;;;;;;4.30;3.90;;;;;;;8.88;100.00;100869.09;5068543;28;20208;-78
2022/11/10 02:53:54;;;;;;;4.20;3.40;;;;;;;8.84;100.00;100864.75;5068134;28;20210;-76
2022/11/10 02:56:22;;;;;;;4.30;3.73;;;;;;;8.80;100.00;100873.31;5060873;28;20186;-76
2022/11/10 02:58:47;;;;;;;5.40;3.77;;;;;;;8.76;100.00;100877.59;5063337;28;20181;-77
2022/11/10 03:01:12;;;;;;;3.90;3.47;;;;;;;8.74;100.00;100888.75;5061945;28;20284;-75
2022/11/10 03:03:38;;;;;;;4.67;3.83;;;;;;;8.72;100.00;100886.16;5058153;28;20217;-77
2022/11/10 03:06:03;;;;;;;5.07;3.83;;;;;;;8.71;100.00;100896.47;5061159;28;20221;-76
2022/11/10 03:08:29;;;;;;;5.97;4.13;;;;;;;8.70;100.00;100900.75;5062902;28;20197;-74
2022/11/10 03:10:55;;;;;;;5.37;4.37;;;;;;;8.70;100.00;100908.50;5073669;28;20304;-78
2022/11/10 03:13:23;;;;;;;4.57;4.17;;;;;;;8.68;100.00;100910.22;5072095;28;20216;-74
2022/11/10 03:15:48;;;;;;;4.70;4.27;;;;;;;8.66;100.00;100915.34;5063957;28;20178;-76
2022/11/10 03:18:13;;;;;;;5.83;4.30;;;;;;;8.67;100.00;100913.66;5071787;28;21004;-78
2022/11/10 03:20:40;;;;;;;4.40;4.00;;;;;;;8.67;100.00;100911.06;5068911;28;20207;-75
2022/11/10 03:23:05;;;;;;;5.63;4.10;;;;;;;8.67;100.00;100919.66;5065919;28;20197;-74
2022/11/10 03:25:32;;;;;;;5.70;4.63;;;;;;;8.67;100.00;100914.50;5071657;28;20198;-75
2022/11/10 03:27:58;;;;;;;4.37;3.93;;;;;;;8.68;100.00;100920.53;5066754;28;20270;-77
2022/11/10 03:30:23;;;;;;;4.77;4.37;;;;;;;8.67;100.00;100924.81;5063802;28;20292;-77
2022/11/10 03:32:48;;;;;;;5.73;4.50;;;;;;;8.67;100.00;100929.97;5081331;28;20234;-75
2022/11/10 03:35:14;;;;;;;7.87;4.50;;;;;;;8.69;100.00;100930.03;5065853;28;20186;-77
2022/11/10 03:37:43;;;;;;;5.30;4.13;;;;;;;8.71;100.00;100930.03;5072039;28;20189;-77
2022/11/10 03:40:09;;;;;;;6.20;4.20;;;;;;;8.71;100.00;100930.88;5094295;28;20209;-72
2022/11/10 03:42:34;;;;;;;4.23;3.80;;;;;;;8.73;100.00;100925.75;5097225;28;20182;-72
2022/11/10 03:45:00;;;;;;;5.17;4.17;;;;;;;8.73;100.00;100929.16;5088049;28;20209;-74
2022/11/10 03:47:26;;;;;;;4.33;3.93;;;;;;;8.73;100.00;100933.47;5087421;28;20242;-73
2022/11/10 03:49:51;;;;;;;4.13;3.50;;;;;;;8.69;100.00;100930.88;5089769;28;20162;-75
2022/11/10 03:52:16;;;;;;;5.57;4.03;;;;;;;8.69;100.00;100945.50;5093304;28;20193;-72
2022/11/10 03:54:44;;;;;;;4.27;3.87;;;;;;;8.66;100.00;100938.56;5087647;28;20265;-72
2022/11/10 03:57:10;;;;;;;5.40;3.70;;;;;;;8.65;100.00;100957.47;5082970;28;20251;-76
2022/11/10 03:59:35;;;;;;;4.10;3.80;;;;;;;8.67;100.00;100949.78;5064115;28;20200;-76
2022/11/10 04:02:00;;;;;;;4.83;4.13;;;;;;;8.70;100.00;100957.53;5067193;28;20214;-74
2022/11/10 04:09:57;;;;;;;6.13;4.43;;;;;;;8.75;100.00;100962.75;5066733;28;20325;-75
2022/11/10 04:17:54;;;;;;;5.20;4.70;;;;;;;8.87;100.00;100988.66;5075923;28;20209;-76
2022/11/10 04:20:19;;;;;;;6.57;4.67;;;;;;;8.90;100.00;100986.13;5068534;28;20301;-76
2022/11/10 04:25:28;;;;;;;6.07;4.90;;;;;;;8.96;100.00;100993.06;5058907;28;20212;-74
2022/11/10 04:27:54;;;;;;;5.40;4.90;;;;;;;8.99;100.00;100993.09;5067879;28;20178;-74
2022/11/10 04:30:19;;;;;;;5.97;4.70;;;;;;;8.99;100.00;100996.53;5064405;28;20265;-75
2022/11/10 04:32:44;;;;;;;5.17;4.17;;;;;;;8.96;100.00;101006.81;5060376;28;20554;-75
2022/11/10 04:35:10;;;;;;;5.93;4.43;;;;;;;8.91;100.00;101008.50;5066709;28;20600;-77
2022/11/10 04:37:35;;;;;;;5.10;4.13;;;;;;;8.87;100.00;101008.44;5060891;28;20268;-77
2022/11/10 04:40:01;;;;;;;6.20;4.20;;;;;;;8.81;100.00;101015.28;5064569;28;20186;-75
2022/11/10 04:42:29;;;;;;;7.17;4.83;;;;;;;8.75;100.00;101022.97;5060711;28;20203;-73
2022/11/10 04:44:54;;;;;;;5.13;4.63;;;;;;;8.71;100.00;101021.19;5061471;28;20205;-74
2022/11/10 04:47:20;;;;;;;5.30;4.50;;;;;;;8.67;100.00;101022.03;5063273;28;20190;-77
2022/11/10 04:49:45;;;;;;;5.00;4.13;;;;;;;8.62;100.00;101021.94;5060618;28;20269;-77
2022/11/10 04:52:10;;;;;;;4.63;4.20;;;;;;;8.58;100.00;101029.66;5066738;28;20956;-76
2022/11/10 04:54:36;;;;;;;5.90;4.60;;;;;;;8.54;100.00;101029.63;5062140;28;20193;-77
2022/11/10 04:57:01;;;;;;;5.63;4.40;;;;;;;8.52;100.00;101031.34;5064147;28;20263;-74
2022/11/10 04:59:26;;;;;;;4.60;4.00;;;;;;;8.49;100.00;101043.31;5067596;28;20186;-76
2022/11/10 05:01:52;;;;;;;5.23;4.23;;;;;;;8.44;100.00;101040.66;5064518;28;20205;-75
2022/11/10 05:04:17;;;;;;;5.17;4.67;;;;;;;8.43;100.00;101044.06;5068020;28;20181;-75
2022/11/10 05:06:42;;;;;;;5.47;4.23;;;;;;;8.38;100.00;101045.75;5074973;28;20208;-77
2022/11/10 05:09:08;;;;;;;8.00;4.67;;;;;;;8.35;100.00;101045.69;5059322;28;20188;-76
2022/11/10 05:11:33;;;;;;;5.47;4.63;;;;;;;8.32;100.00;101053.41;5066034;28;20209;-77
2022/11/10 05:13:58;;;;;;;5.10;4.63;;;;;;;8.30;100.00;101053.38;5065464;28;20181;-77
2022/11/10 05:16:24;;;;;;;5.40;4.40;;;;;;;8.27;100.00;101053.34;5060490;28;20208;-74
2022/11/10 05:18:53;;;;;;;4.90;4.17;;;;;;;8.29;100.00;101050.78;5060714;28;20194;-77
2022/11/10 05:21:19;;;;;;;5.33;4.10;;;;;;;8.28;100.00;101043.88;5070761;28;20201;-74
2022/11/10 05:23:45;;;;;;;5.63;4.53;;;;;;;8.27;100.00;101053.34;5065606;28;20190;-75
2022/11/10 05:26:13;;;;;;;4.80;4.30;;;;;;;8.23;100.00;101060.19;5067997;28;21281;-76
2022/11/10 05:28:40;;;;;;;4.67;4.37;;;;;;;8.18;100.00;101059.25;5076373;28;20190;-75
2022/11/10 05:31:06;;;;;;;5.57;3.63;;;;;;;8.15;100.00;101059.19;5069887;28;20240;-76
2022/11/10 05:33:32;;;;;;;6.50;4.23;;;;;;;8.12;100.00;101050.56;5072478;28;20200;-76
2022/11/10 05:35:57;;;;;;;4.67;4.27;;;;;;;8.11;100.00;101053.97;5067745;28;20181;-77
2022/11/10 05:38:23;;;;;;;5.43;4.13;;;;;;;8.11;100.00;101051.41;5067259;28;20197;-75
2022/11/10 05:40:48;;;;;;;4.77;4.20;;;;;;;8.12;100.00;101054.00;5063178;28;20292;-75
2022/11/10 05:43:14;;;;;;;6.93;4.47;;;;;;;8.13;100.00;101062.59;5064370;28;20200;-76
2022/11/10 05:45:39;;;;;;;5.03;4.50;;;;;;;8.11;100.00;101067.72;5063605;28;20301;-77
2022/11/10 05:48:05;;;;;;;4.70;4.30;;;;;;;8.10;100.00;101073.72;5067106;28;20240;-77
2022/11/10 05:50:30;;;;;;;6.27;4.90;;;;;;;8.09;100.00;101066.88;5061523;28;20226;-77
2022/11/10 05:52:56;;;;;;;5.50;4.37;;;;;;;8.11;100.00;101084.91;5064061;28;20231;-77
2022/11/10 05:55:24;;;;;;;4.77;4.30;;;;;;;8.11;100.00;101084.91;5059798;28;20333;-75
2022/11/10 05:57:51;;;;;;;5.30;4.47;;;;;;;8.09;100.00;101093.50;5062000;28;20643;-75
2022/11/10 06:00:22;;;;;;;6.07;5.17;;;;;;;8.07;100.00;101097.75;5062152;28;20298;-74
2022/11/10 06:03:05;;;;;;;5.50;4.63;;;;;;;8.05;100.00;101099.44;5061738;28;20176;-74
2022/11/10 06:05:34;;;;;;;7.03;4.80;;;;;;;8.06;100.00;101114.06;5073220;28;20204;-77
2022/11/10 06:08:00;;;;;;;4.73;4.30;;;;;;;8.06;100.00;101116.66;5067787;28;20265;-76
2022/11/10 06:10:26;;;;;;;5.83;5.33;;;;;;;8.08;100.00;101119.28;5065445;28;20218;-76
2022/11/10 06:12:52;;;;;;;6.67;6.07;;;;;;;8.13;100.00;101119.34;5063622;28;20214;-75
2022/11/10 06:15:18;;;;;;;6.90;5.13;;;;;;;8.17;100.00;101129.69;5061291;28;20673;-75
2022/11/10 06:17:44;;;;;;;7.43;6.07;;;;;;;8.27;100.00;101137.56;5059766;28;20197;-76
2022/11/10 06:20:09;;;;;;;6.70;5.97;;;;;;;8.33;100.00;101142.81;5068098;28;20205;-74
2022/11/10 06:22:35;;;;;;;6.73;6.03;;;;;;;8.38;100.00;101152.34;5071886;28;20246;-75
2022/11/10 06:25:00;;;;;;;6.63;6.03;;;;;;;8.42;100.00;101160.13;5070386;28;20601;-77
2022/11/10 06:27:26;;;;;;;8.53;6.63;;;;;;;8.43;100.00;101173.03;5062183;28;20185;-78
2022/11/10 06:29:51;;;;;;;10.47;8.70;;;;;;;8.47;100.00;101173.97;5062649;28;20269;-74
2022/11/10 06:32:17;;;;;;;9.90;9.00;;;;;;;8.51;100.00;101178.34;5065892;28;20828;-74
2022/11/10 06:34:42;;;;;;;9.17;8.27;;;;;;;8.57;100.00;101182.72;5070796;28;20709;-76
2022/11/10 06:37:08;;;;;;;9.47;8.13;;;;;;;8.61;100.00;101181.91;5067982;28;21115;-76
2022/11/10 06:39:33;;;;;;;8.17;7.47;;;;;;;8.63;100.00;101196.56;5062546;28;20188;-76
2022/11/10 06:41:58;;;;;;;7.67;7.07;;;;;;;8.66;100.00;101200.94;5062624;28;20200;-76
2022/11/10 06:44:24;;;;;;;8.00;7.20;;;;;;;8.68;100.00;101197.50;5061356;28;20190;-74
2022/11/10 06:46:50;;;;;;;7.40;6.77;;;;;;;8.73;100.00;101196.72;5064366;28;20302;-75
2022/11/10 06:49:15;;;;;;;7.40;6.70;;;;;;;8.76;100.00;101205.34;5067291;28;20272;-76
2022/11/10 06:51:40;;;;;;;8.47;7.77;;;;;;;8.82;100.00;101205.44;5069001;28;20807;-74
2022/11/10 06:54:06;;;;;;;7.27;6.57;;;;;;;8.87;100.00;101212.34;5059799;28;20619;-74
2022/11/10 06:56:31;;;;;;;7.30;6.67;;;;;;;8.84;100.00;101208.91;5069712;28;20235;-75
2022/11/10 06:58:57;;;;;;;7.27;6.57;;;;;;;8.81;100.00;101219.19;5071415;28;20304;-75
2022/11/10 07:01:25;;;;;;;6.87;6.23;;;;;;;8.77;100.00;101217.41;5067969;28;20206;-76
2022/11/10 07:03:52;;;;;;;6.70;6.13;;;;;;;8.73;100.00;101231.13;5064545;28;20181;-74
2022/11/10 07:06:20;;;;;;;7.50;6.90;;;;;;;8.68;100.00;101241.38;5065175;28;20197;-76
2022/11/10 07:08:46;;;;;;;7.43;6.73;;;;;;;8.65;100.00;101237.91;5070835;28;20178;-76
2022/11/10 07:11:12;;;;;;;6.77;6.17;;;;;;;8.64;100.00;101239.59;5061278;28;20408;-76
2022/11/10 07:13:37;;;;;;;6.23;5.73;;;;;;;8.65;100.00;101246.50;5068288;28;20368;-77
2022/11/10 07:16:04;;;;;;;6.47;5.90;;;;;;;8.72;100.00;101251.75;5073483;28;20555;-76
2022/11/10 07:18:29;;;;;;;6.53;5.83;;;;;;;8.79;100.00;101254.44;5077012;28;20182;-73
2022/11/10 07:20:55;;;;;;;6.80;6.13;;;;;;;8.84;100.00;101260.53;5074575;28;20209;-77
2022/11/10 07:23:20;;;;;;;6.67;6.10;;;;;;;8.89;100.00;101270.94;5075554;28;20206;-76
2022/11/10 07:25:45;;;;;;;6.20;5.60;;;;;;;8.95;100.00;101283.06;5070202;28;20223;-75
2022/11/10 07:28:11;;;;;;;7.53;6.80;;;;;;;9.04;100.00;101278.00;5072441;28;20195;-76
2022/11/10 07:30:37;;;;;;;8.87;7.40;;;;;;;9.14;100.00;101286.75;5071158;28;20194;-76
2022/11/10 07:33:09;;;;;;;12.00;8.43;;;;;;;9.26;100.00;101283.44;5068483;28;20186;-76
2022/11/10 07:35:35;;;;;;;11.10;8.97;;;;;;;9.34;100.00;101288.72;5063308;28;20632;-76
2022/11/10 07:38:04;;;;;;;12.97;9.30;;;;;;;9.39;100.00;101293.09;5065713;28;20550;-76
2022/11/10 07:40:30;;;;;;;24.73;15.77;;;;;;;9.43;100.00;101297.44;5075992;28;20201;-77
2022/11/10 07:42:55;;;;;;;34.33;20.50;;;;;;;9.50;100.00;101300.09;5067981;28;20185;-76
2022/11/10 07:45:21;;;;;;;32.70;19.87;;;;;;;9.60;100.00;101292.47;5061587;28;20205;-74
2022/11/10 07:47:46;;;;;;;23.47;16.33;;;;;;;9.72;100.00;101289.16;5069574;28;20690;-75
2022/11/10 07:50:11;;;;;;;19.07;12.97;;;;;;;9.89;100.00;101299.66;5074827;28;20865;-75
2022/11/10 07:52:37;;;;;;;13.70;11.40;;;;;;;10.07;100.00;101301.56;5074489;28;20197;-75
2022/11/10 07:55:04;;;;;;;10.87;9.27;;;;;;;10.29;100.00;101304.34;5065304;28;20240;-74
2022/11/10 07:57:29;;;;;;;9.93;8.60;;;;;;;10.47;100.00;101313.16;5062021;28;20195;-75
2022/11/10 07:59:54;;;;;;;7.10;6.40;;;;;;;10.58;100.00;101310.66;5069852;28;20557;-76
2022/11/10 08:02:20;;;;;;;6.93;6.30;;;;;;;10.65;100.00;101309.81;5070715;28;20179;-75
2022/11/10 08:04:45;;;;;;;7.43;6.70;;;;;;;10.65;100.00;101315.00;5072244;28;20623;-74
2022/11/10 08:07:10;;;;;;;8.77;7.57;;;;;;;10.62;100.00;101322.75;5064734;28;20211;-76
2022/11/10 08:09:36;;;;;;;10.47;8.23;;;;;;;10.61;100.00;101328.78;5066454;28;20212;-75
2022/11/10 08:12:01;;;;;;;16.43;10.17;;;;;;;10.64;100.00;101324.50;5070091;28;20216;-74
2022/11/10 08:14:26;;;;;;;13.10;8.97;;;;;;;10.73;100.00;101317.66;5068198;28;20924;-75
2022/11/10 08:16:52;;;;;;;10.23;8.23;;;;;;;10.85;100.00;101325.50;5074727;28;20181;-73
2022/11/10 08:19:17;;;;;;;9.73;6.83;;;;;;;11.15;100.00;101330.88;5074307;28;20273;-76
2022/11/10 08:21:43;;;;;;;6.27;5.57;;;;;;;11.48;100.00;101337.06;5069886;28;20276;-76
2022/11/10 08:24:08;;;;;;;6.07;5.40;;;;;;;11.72;100.00;101344.06;5061368;28;20250;-77
2022/11/10 08:26:33;;;;;;;5.70;4.67;;;;;;;11.95;100.00;101356.22;5062873;28;20214;-76
2022/11/10 08:28:59;;;;;;;4.60;4.20;;;;;;;12.13;100.00;101347.66;5065338;28;20204;-77
2022/11/10 08:31:24;;;;;;;4.40;3.97;;;;;;;12.26;100.00;101364.97;5068336;28;20210;-73
2022/11/10 08:33:49;;;;;;;4.33;3.93;;;;;;;12.27;100.00;101360.66;5057205;28;20181;-76
2022/11/10 08:36:15;;;;;;;4.57;4.17;;;;;;;12.34;100.00;101362.38;5056772;28;20182;-76
2022/11/10 08:38:40;;;;;;;5.00;4.03;;;;;;;12.45;100.00;101362.38;5062000;28;20938;-76
2022/11/10 08:41:05;;;;;;;5.10;4.10;;;;;;;12.54;100.00;101367.59;5061665;28;20202;-76
2022/11/10 08:43:31;;;;;;;6.17;4.27;;;;;;;12.52;100.00;101368.44;5059632;28;20249;-76
2022/11/10 08:45:57;;;;;;;5.50;4.40;;;;;;;12.46;100.00;101367.59;5062330;28;20223;-76
2022/11/10 08:48:23;;;;;;;3.83;3.50;;;;;;;12.45;100.00;101371.06;5064919;28;20191;-77
2022/11/10 08:50:49;;;;;;;4.03;3.60;;;;;;;12.45;100.00;101375.38;5062930;28;20253;-74
2022/11/10 08:53:17;;;;;;;4.53;3.93;;;;;;;12.41;100.00;101382.28;5065420;28;21913;-74
2022/11/10 08:55:43;;;;;;;5.43;3.80;;;;;;;12.39;100.00;101385.78;5062723;28;20188;-77
2022/11/10 08:58:17;;;;;;;5.63;4.83;;;;;;;12.40;100.00;101390.94;5059531;28;20636;-76
2022/11/10 09:00:42;;;;;;;5.90;5.13;;;;;;;12.41;100.00;101387.50;5059012;28;20276;-77
2022/11/10 09:03:15;;;;;;;6.93;4.40;;;;;;;12.40;100.00;101390.94;5060657;28;20182;-76
2022/11/10 09:05:41;;;;;;;6.10;4.83;;;;;;;12.39;100.00;101386.63;5058216;28;20199;-76
2022/11/10 09:08:07;;;;;;;5.10;4.50;;;;;;;12.41;100.00;101392.69;5080152;28;20201;-75
2022/11/10 09:10:36;;;;;;;6.07;4.70;;;;;;;12.44;100.00;101389.22;5064531;28;20198;-76
2022/11/10 09:13:03;;;;;;;4.77;4.37;;;;;;;12.48;100.00;101394.41;5057359;28;20189;-74
2022/11/10 09:15:29;;;;;;;5.27;4.40;;;;;;;12.49;100.00;101395.28;5059694;28;20222;-76
2022/11/10 09:17:59;;;;;;;5.30;4.30;;;;;;;12.50;100.00;101399.63;5062311;28;20208;-76
2022/11/10 09:20:29;;;;;;;5.00;4.40;;;;;;;12.52;100.00;101402.19;5064023;28;20207;-77
2022/11/10 09:22:54;;;;;;;4.17;3.63;;;;;;;12.54;100.00;101398.75;5065452;28;20273;-76
2022/11/10 09:25:20;;;;;;;4.67;4.13;;;;;;;12.56;100.00;101404.78;5066340;28;20286;-74
2022/11/10 09:27:46;;;;;;;5.67;4.10;;;;;;;12.59;100.00;101399.63;5063663;28;20190;-76
2022/11/10 09:30:11;;;;;;;3.87;3.47;;;;;;;12.63;100.00;101403.94;5055403;28;20232;-75
2022/11/10 09:32:37;;;;;;;3.97;3.53;;;;;;;12.68;100.00;101405.69;5063101;28;20183;-74
2022/11/10 09:35:03;;;;;;;4.43;3.43;;;;;;;12.71;100.00;101414.34;5057142;28;20185;-77
2022/11/10 09:37:29;;;;;;;5.63;3.70;;;;;;;12.74;100.00;101403.97;5062184;28;20189;-74
2022/11/10 09:39:55;;;;;;;4.97;3.73;;;;;;;12.74;100.00;101416.94;5062695;28;20820;-76
2022/11/10 09:42:31;;;;;;;3.87;3.53;;;;;;;12.78;100.00;101420.41;5064659;28;20655;-77
2022/11/10 09:45:06;;;;;;;4.07;3.60;;;;;;;12.82;100.00;101409.16;5062559;28;20187;-77
2022/11/10 09:47:46;;;;;;;3.37;2.77;;;;;;;12.88;100.00;101419.53;5066959;28;20188;-74
2022/11/10 09:50:25;;;;;;;4.13;2.90;;;;;;;12.93;100.00;101425.59;5071478;28;20800;-74
2022/11/10 09:52:51;;;;;;;3.07;2.70;;;;;;;12.99;100.00;101435.13;5060298;28;20690;-75
2022/11/10 09:55:46;;;;;;;4.47;2.80;;;;;;;13.05;100.00;101434.25;5062533;28;20187;-77
2022/11/10 09:58:13;;;;;;;3.80;2.70;;;;;;;13.10;100.00;101445.50;5061689;28;20200;-76
2022/11/10 10:00:41;;;;;;;2.53;2.20;;;;;;;13.15;100.00;101446.38;5073702;28;20206;-74
2022/11/10 10:03:15;;;;;;;2.73;2.23;;;;;;;13.22;100.00;101455.03;5063405;28;20196;-74
2022/11/10 10:06:02;;;;;;;3.90;2.40;;;;;;;13.26;100.00;101460.22;5067813;28;20506;-74
2022/11/10 10:09:04;;;;;;;3.60;2.27;;;;;;;13.32;100.00;101455.88;5056907;28;20198;-78
2022/11/10 10:11:48;;;;;;;2.27;2.07;;;;;;;13.36;100.00;101457.59;5062812;28;20203;-77
2022/11/10 10:14:27;;;;;;;2.20;2.00;;;;;;;13.39;100.00;101450.66;5063579;28;20185;-75
2022/11/10 10:17:14;;;;;;;3.23;2.00;;;;;;;13.46;100.00;101445.47;5063149;28;20185;-76
2022/11/10 10:19:58;;;;;;;4.23;2.10;;;;;;;13.50;100.00;101439.41;5062333;28;20183;-76
2022/11/10 10:22:23;;;;;;;2.77;2.30;;;;;;;13.56;100.00;101449.78;5060190;28;20185;-77
2022/11/10 10:24:52;;;;;;;3.67;2.00;;;;;;;13.59;100.00;101447.19;5067686;28;20192;-75
2022/11/10 10:27:26;;;;;;;2.37;1.80;;;;;;;13.69;100.00;101441.06;5063037;28;20620;-77
2022/11/10 10:29:52;;;;;;;3.20;2.03;;;;;;;13.77;100.00;101435.84;5066142;28;21061;-75
2022/11/10 10:32:18;;;;;;;3.57;2.00;;;;;;;13.84;100.00;101434.09;5061293;28;20182;-74
2022/11/10 10:34:45;;;;;;;3.90;1.70;;;;;;;13.87;100.00;101439.28;5059655;28;20300;-74
2022/11/10 10:37:25;;;;;;;2.87;1.53;;;;;;;13.89;100.00;101439.28;5062182;28;20216;-75
2022/11/10 10:39:56;;;;;;;3.00;2.70;;;;;;;13.91;100.00;101432.34;5062078;28;20227;-76
2022/11/10 10:42:33;;;;;;;4.50;3.17;;;;;;;13.92;100.00;101424.50;5063933;28;20334;-75
2022/11/10 10:45:20;;;;;;;3.00;2.60;;;;;;;13.92;100.00;101440.13;5065509;28;20185;-76
2022/11/10 10:47:48;;;;;;;3.40;2.03;;;;;;;13.96;100.00;101439.25;5059050;28;20552;-77
2022/11/10 10:50:23;;;;;;;2.70;2.27;;;;;;;13.98;100.00;101441.84;5066337;28;20219;-76
2022/11/10 10:53:06;;;;;;;2.20;1.60;;;;;;;13.96;100.00;101447.06;5055041;28;20181;-74
2022/11/10 10:55:33;;;;;;;3.33;1.87;;;;;;;13.98;100.00;101447.03;5057716;28;20292;-76
2022/11/10 10:58:02;;;;;;;2.10;1.80;;;;;;;14.00;100.00;101440.94;5060510;28;20182;-76
2022/11/10 11:00:28;;;;;;;1.70;1.60;;;;;;;14.04;100.00;101434.00;5069910;28;20723;-76
2022/11/10 11:03:18;;;;;;;2.73;1.50;;;;;;;14.04;100.00;101439.22;5070075;28;20167;-77
2022/11/10 11:05:59;;;;;;;2.53;1.63;;;;;;;14.04;100.00;101449.63;5060835;28;20195;-76
2022/11/10 11:08:25;;;;;;;1.83;1.63;;;;;;;14.07;100.00;101441.78;5058158;28;20280;-75
2022/11/10 11:10:51;;;;;;;3.07;1.93;;;;;;;14.10;100.00;101444.38;5066033;28;20212;-75
2022/11/10 11:13:26;;;;;;;2.50;1.80;;;;;;;14.16;100.00;101440.88;5058323;28;20186;-76
2022/11/10 11:16:00;;;;;;;2.03;1.53;;;;;;;14.20;100.00;101434.78;5058292;28;20189;-75
2022/11/10 11:18:30;;;;;;;2.67;1.50;;;;;;;14.25;100.00;101433.03;5067717;28;20178;-75
2022/11/10 11:21:02;;;;;;;1.63;1.43;;;;;;;14.26;100.00;101426.94;5060145;28;20609;-77
2022/11/10 11:23:33;;;;;;;3.07;1.47;;;;;;;14.23;100.00;101428.69;5060551;28;20186;-75
2022/11/10 11:26:18;;;;;;;2.57;1.60;;;;;;;14.24;100.00;101438.22;5066186;28;20210;-76
2022/11/10 11:29:02;;;;;;;2.63;1.43;;;;;;;14.23;100.00;101431.28;5056157;28;20181;-75
2022/11/10 11:32:24;;;;;;;2.83;1.70;;;;;;;14.23;100.00;101434.78;5065394;28;20295;-77
2022/11/10 11:35:18;;;;;;;2.10;1.50;;;;;;;14.22;100.00;101430.44;5004617;28;20188;-75
2022/11/10 11:37:53;;;;;;;2.17;1.40;;;;;;;14.28;100.00;101432.13;4971053;28;20201;-76
2022/11/10 11:40:24;;;;;;;1.57;1.43;;;;;;;14.31;100.00;101426.91;5051403;28;20213;-74